createdAt,value
2023-03-21T00:00:45.002Z,65.25
2023-03-21T00:02:07.277Z,58.17
2023-03-21T00:03:28.979Z,61.08
2023-03-21T00:04:53.653Z,67.20
2023-03-21T00:06:17.013Z,60.72
2023-03-21T00:07:39.359Z,64.18
2023-03-21T00:09:04.093Z,63.35
2023-03-21T00:10:39.132Z,62.20
2023-03-21T00:12:07.503Z,66.53
2023-03-21T00:13:32.845Z,61.92
2023-03-21T00:14:56.408Z,65.25
2023-03-21T00:16:21.858Z,62.53
2023-03-21T00:17:50.943Z,70.68
2023-03-21T00:19:14.765Z,63.97
2023-03-21T00:20:37.956Z,65.63
2023-03-21T00:22:08.153Z,68.22
2023-03-21T00:23:34.167Z,72.72
2023-03-21T00:24:56.918Z,66.88
2023-03-21T00:26:18.552Z,64.22
2023-03-21T00:27:57.192Z,66.72
2023-03-21T00:29:24.925Z,66.07
2023-03-21T00:30:46.444Z,66.05
2023-03-21T00:32:09.927Z,66.03
2023-03-21T00:33:34.062Z,69.45
2023-03-21T00:35:16.409Z,68.82
2023-03-21T00:36:38.322Z,63.97
2023-03-21T00:38:01.304Z,67.15
2023-03-21T00:39:23.417Z,65.27
2023-03-21T00:40:49.272Z,65.63
2023-03-21T00:42:11.374Z,65.53
2023-03-21T00:43:33.803Z,73.25
2023-03-21T00:44:59.310Z,67.68
2023-03-21T00:46:23.298Z,63.90
2023-03-21T00:47:44.592Z,66.90
2023-03-21T00:49:07.466Z,68.53
2023-03-21T00:50:28.485Z,68.38
2023-03-21T00:51:53.362Z,70.13
2023-03-21T00:53:16.615Z,68.72
2023-03-21T00:54:38.024Z,74.15
2023-03-21T00:56:00.115Z,68.07
2023-03-21T00:57:37.609Z,66.70
2023-03-21T00:59:02.793Z,68.70
2023-03-21T01:00:24.360Z,69.22
2023-03-21T01:01:47.008Z,69.40
2023-03-21T01:03:23.278Z,70.10
2023-03-21T01:04:46.809Z,64.10
2023-03-21T01:06:09.384Z,66.88
2023-03-21T01:07:31.289Z,65.15
2023-03-21T01:08:53.733Z,80.32
2023-03-21T01:10:16.375Z,92.75
2023-03-21T01:11:38.430Z,86.10
2023-03-21T01:14:26.437Z,81.05
2023-03-21T01:15:50.061Z,73.03
2023-03-21T01:17:12.265Z,80.10
2023-03-21T01:18:35.347Z,75.38
2023-03-21T01:19:57.607Z,60.22
2023-03-21T01:21:20.489Z,56.70
2023-03-21T01:22:41.670Z,61.95
2023-03-21T01:24:04.035Z,58.00
2023-03-21T01:25:25.355Z,69.90
2023-03-21T01:26:47.638Z,59.45
2023-03-21T01:28:09.882Z,57.05
2023-03-21T01:29:33.537Z,61.15
2023-03-21T01:30:54.901Z,63.83
2023-03-21T01:32:17.013Z,59.53
2023-03-21T01:33:38.237Z,65.90
2023-03-21T01:35:00.765Z,67.20
2023-03-21T01:37:50.302Z,62.72
2023-03-21T01:39:12.399Z,54.25
2023-03-21T01:40:33.854Z,51.97
2023-03-21T01:43:30.392Z,53.60
2023-03-21T01:45:00.691Z,70.75
2023-03-21T01:46:51.533Z,61.63
2023-03-21T01:48:40.321Z,44.55
2023-03-21T01:50:05.011Z,51.85
2023-03-21T01:51:47.113Z,56.47
2023-03-21T01:53:13.995Z,56.55
2023-03-21T01:54:40.053Z,56.30
2023-03-21T01:56:07.095Z,65.60
2023-03-21T01:57:58.562Z,49.75
2023-03-21T01:59:30.531Z,53.92
2023-03-21T02:01:28.941Z,49.90
2023-03-21T02:03:06.173Z,52.80
2023-03-21T02:04:41.327Z,46.40
2023-03-21T02:06:16.050Z,56.67
2023-03-21T02:07:44.398Z,54.23
2023-03-21T02:09:16.089Z,50.25
2023-03-21T02:10:37.777Z,50.65
2023-03-21T02:12:01.490Z,58.38
2023-03-21T02:13:25.435Z,57.85
2023-03-21T02:14:50.324Z,51.45
2023-03-21T02:16:46.875Z,46.70
2023-03-21T02:18:18.681Z,51.33
2023-03-21T02:20:34.769Z,58.28
2023-03-21T02:22:28.394Z,59.08
2023-03-21T02:24:12.787Z,64.40
2023-03-21T02:26:10.335Z,58.78
2023-03-21T02:27:35.192Z,60.42
2023-03-21T02:29:02.968Z,51.22
2023-03-21T02:31:15.903Z,59.45
2023-03-21T02:33:04.619Z,52.90
2023-03-21T02:34:54.880Z,53.53
2023-03-21T02:36:26.489Z,54.65
2023-03-21T02:38:00.503Z,59.33
2023-03-21T02:39:28.495Z,55.22
2023-03-21T02:41:03.375Z,55.15
2023-03-21T02:42:36.011Z,51.80
2023-03-21T02:44:06.991Z,62.97
2023-03-21T02:45:36.308Z,57.55
2023-03-21T02:47:06.430Z,71.45
2023-03-21T02:48:49.703Z,65.30
2023-03-21T02:50:17.708Z,65.68
2023-03-21T02:51:42.072Z,62.50
2023-03-21T02:53:08.823Z,59.28
2023-03-21T02:54:47.292Z,65.88
2023-03-21T02:56:11.236Z,69.28
2023-03-21T02:57:43.150Z,69.50
2023-03-21T02:59:07.972Z,58.90
2023-03-21T03:00:33.967Z,73.45
2023-03-21T03:01:57.061Z,70.32
2023-03-21T03:03:33.014Z,70.65
2023-03-21T03:04:56.941Z,74.15
2023-03-21T03:06:24.256Z,66.53
2023-03-21T03:07:58.354Z,69.88
2023-03-21T03:09:32.606Z,68.88
2023-03-21T03:11:10.200Z,69.25
2023-03-21T03:12:44.501Z,63.92
2023-03-21T03:14:50.034Z,68.13
2023-03-21T03:16:25.903Z,76.97
2023-03-21T03:17:55.632Z,66.68
2023-03-21T03:19:26.215Z,74.90
2023-03-21T03:21:01.092Z,76.25
2023-03-21T03:22:27.100Z,70.93
2023-03-21T03:23:54.273Z,68.95
2023-03-21T03:25:36.052Z,64.68
2023-03-21T03:27:08.929Z,62.70
2023-03-21T03:28:36.621Z,68.90
2023-03-21T03:31:33.312Z,62.75
2023-03-21T03:33:01.292Z,67.90
2023-03-21T03:34:28.736Z,73.82
2023-03-21T03:36:04.471Z,64.40
2023-03-21T03:37:33.508Z,63.95
2023-03-21T03:38:56.408Z,68.25
2023-03-21T03:40:26.660Z,68.05
2023-03-21T03:42:15.449Z,63.00
2023-03-21T03:43:52.419Z,72.93
2023-03-21T03:45:14.949Z,72.05
2023-03-21T03:46:45.065Z,69.22
2023-03-21T03:48:14.145Z,69.88
2023-03-21T03:49:42.884Z,64.10
2023-03-21T03:51:10.103Z,61.80
2023-03-21T03:52:59.924Z,70.60
2023-03-21T03:54:29.986Z,60.03
2023-03-21T03:55:55.827Z,68.13
2023-03-21T03:57:18.973Z,59.13
2023-03-21T03:58:45.964Z,67.57
2023-03-21T04:00:13.083Z,65.82
2023-03-21T04:01:43.735Z,68.22
2023-03-21T04:03:07.393Z,72.13
2023-03-21T04:04:31.944Z,71.50
2023-03-21T04:05:54.202Z,67.38
2023-03-21T04:07:16.746Z,65.13
2023-03-21T04:08:37.961Z,74.95
2023-03-21T04:10:00.555Z,67.18
2023-03-21T04:11:24.989Z,69.22
2023-03-21T04:12:48.062Z,65.35
2023-03-21T04:14:44.457Z,64.45
2023-03-21T04:16:09.079Z,60.83
2023-03-21T04:17:33.507Z,67.63
2023-03-21T04:18:57.078Z,59.60
2023-03-21T04:20:30.298Z,66.22
2023-03-21T04:21:58.384Z,67.78
2023-03-21T04:23:21.112Z,69.80
2023-03-21T04:24:44.978Z,62.38
2023-03-21T04:26:08.518Z,81.60
2023-03-21T04:27:36.040Z,74.93
2023-03-21T04:29:17.888Z,69.95
2023-03-21T04:31:03.515Z,59.30
2023-03-21T04:32:39.670Z,66.53
2023-03-21T04:34:12.784Z,65.32
2023-03-21T04:35:39.863Z,72.78
2023-03-21T04:37:03.610Z,69.10
2023-03-21T04:38:30.813Z,71.53
2023-03-21T04:39:56.803Z,70.72
2023-03-21T04:41:18.242Z,70.35
2023-03-21T04:42:42.000Z,75.32
2023-03-21T04:44:04.299Z,66.85
2023-03-21T04:45:26.660Z,70.72
2023-03-21T04:46:47.595Z,61.30
2023-03-21T04:48:10.515Z,78.65
2023-03-21T04:49:32.665Z,63.80
2023-03-21T04:50:54.635Z,67.38
2023-03-21T04:52:16.861Z,71.28
2023-03-21T04:53:39.696Z,69.32
2023-03-21T04:55:02.181Z,67.88
2023-03-21T04:56:30.742Z,71.13
2023-03-21T04:57:54.585Z,71.53
2023-03-21T04:59:17.347Z,69.25
2023-03-21T05:00:40.418Z,67.95
2023-03-21T05:02:02.723Z,76.78
2023-03-21T05:03:25.441Z,67.70
2023-03-21T05:04:47.414Z,71.45
2023-03-21T05:06:10.931Z,71.55
2023-03-21T05:07:33.108Z,73.15
2023-03-21T05:10:17.650Z,74.63
2023-03-21T05:11:40.451Z,76.93
2023-03-21T05:13:04.791Z,80.97
2023-03-21T05:14:28.661Z,75.38
2023-03-21T05:15:50.809Z,79.68
2023-03-21T05:17:25.068Z,75.05
2023-03-21T05:18:50.794Z,68.97
2023-03-21T05:20:16.174Z,74.70
2023-03-21T05:21:44.055Z,76.20
2023-03-21T05:23:11.992Z,70.03
2023-03-21T05:24:34.572Z,75.15
2023-03-21T05:25:56.997Z,71.53
2023-03-21T05:27:36.322Z,71.65
2023-03-21T05:29:05.918Z,76.72
2023-03-21T05:30:28.233Z,73.63
2023-03-21T05:31:54.105Z,64.68
2023-03-21T05:33:16.517Z,71.10
2023-03-21T05:34:38.675Z,73.60
2023-03-21T05:35:59.744Z,71.38
2023-03-21T05:37:25.819Z,67.00
2023-03-21T05:38:47.084Z,71.07
2023-03-21T05:40:11.323Z,76.57
2023-03-21T05:41:37.082Z,64.35
2023-03-21T05:43:00.184Z,67.13
2023-03-21T05:44:22.789Z,66.78
2023-03-21T05:45:45.324Z,71.95
2023-03-21T05:47:08.533Z,73.50
2023-03-21T05:48:38.511Z,71.07
2023-03-21T05:50:11.337Z,71.72
2023-03-21T05:51:35.481Z,66.20
2023-03-21T05:53:00.270Z,77.95
2023-03-21T05:54:22.646Z,73.50
2023-03-21T05:55:45.729Z,73.53
2023-03-21T05:59:00.896Z,71.28
2023-03-21T06:00:27.639Z,68.25
2023-03-21T06:02:23.474Z,68.95
2023-03-21T06:03:45.065Z,70.22
2023-03-21T06:05:17.724Z,64.90
2023-03-21T06:06:39.093Z,67.70
2023-03-21T06:08:01.455Z,71.78
2023-03-21T06:09:23.514Z,68.05
2023-03-21T06:10:50.704Z,65.50
2023-03-21T06:12:14.507Z,65.22
2023-03-21T06:13:48.430Z,73.57
2023-03-21T06:15:11.751Z,62.95
2023-03-21T06:16:47.224Z,67.72
2023-03-21T06:18:09.331Z,67.78
2023-03-21T06:19:34.013Z,63.85
2023-03-21T06:21:03.547Z,63.70
2023-03-21T06:22:27.270Z,61.70
2023-03-21T06:23:51.782Z,58.17
2023-03-21T06:25:12.812Z,68.20
2023-03-21T06:26:35.793Z,69.55
2023-03-21T06:27:59.904Z,64.65
2023-03-21T06:29:22.374Z,64.25
2023-03-21T06:30:45.489Z,61.50
2023-03-21T06:32:28.865Z,58.92
2023-03-21T06:33:57.554Z,62.15
2023-03-21T06:35:20.104Z,62.55
2023-03-21T06:36:45.105Z,62.45
2023-03-21T06:38:08.649Z,64.78
2023-03-21T06:39:31.327Z,64.30
2023-03-21T06:40:53.776Z,67.18
2023-03-21T06:42:18.519Z,61.08
2023-03-21T06:43:41.043Z,69.95
2023-03-21T06:45:03.631Z,67.90
2023-03-21T06:46:26.407Z,62.55
2023-03-21T06:47:49.892Z,62.17
2023-03-21T06:49:26.154Z,60.65
2023-03-21T06:50:50.556Z,67.38
2023-03-21T06:52:14.252Z,56.08
2023-03-21T06:53:37.300Z,66.63
2023-03-21T06:55:29.080Z,58.80
2023-03-21T06:56:54.343Z,59.35
2023-03-21T06:58:21.965Z,61.95
2023-03-21T06:59:44.227Z,56.58
2023-03-21T07:01:12.132Z,66.50
2023-03-21T07:02:46.602Z,63.53
2023-03-21T07:04:15.308Z,62.90
2023-03-21T07:05:38.409Z,57.08
2023-03-21T07:07:03.950Z,57.60
2023-03-21T07:08:27.334Z,56.90
2023-03-21T07:09:52.050Z,59.70
2023-03-21T07:11:14.052Z,55.20
2023-03-21T07:12:36.956Z,58.13
2023-03-21T07:14:16.067Z,54.13
2023-03-21T07:15:39.084Z,53.70
2023-03-21T07:17:10.675Z,52.88
2023-03-21T07:18:36.772Z,54.10
2023-03-21T07:20:07.284Z,54.75
2023-03-21T07:21:29.936Z,51.08
2023-03-21T07:22:54.697Z,50.33
2023-03-21T07:24:23.921Z,53.22
2023-03-21T07:25:45.897Z,47.00
2023-03-21T07:27:11.446Z,46.83
2023-03-21T07:28:34.772Z,54.50
2023-03-21T07:29:57.641Z,57.35
2023-03-21T07:31:22.151Z,52.80
2023-03-21T07:32:45.711Z,47.88
2023-03-21T07:34:10.479Z,55.53
2023-03-21T07:35:40.546Z,48.53
2023-03-21T07:37:03.338Z,52.03
2023-03-21T07:38:27.897Z,48.05
2023-03-21T07:39:50.724Z,48.25
2023-03-21T07:41:13.506Z,58.13
2023-03-21T07:42:39.549Z,53.25
2023-03-21T07:44:02.856Z,54.65
2023-03-21T07:45:29.645Z,53.70
2023-03-21T07:46:59.839Z,54.40
2023-03-21T07:48:23.141Z,52.10
2023-03-21T07:49:46.037Z,53.63
2023-03-21T07:51:13.636Z,50.67
2023-03-21T07:52:36.295Z,47.97
2023-03-21T07:54:02.621Z,48.97
2023-03-21T07:55:25.223Z,52.95
2023-03-21T07:56:51.221Z,54.70
2023-03-21T07:58:15.120Z,52.35
2023-03-21T07:59:39.839Z,55.40
2023-03-21T08:01:03.003Z,53.95
2023-03-21T08:02:28.047Z,55.03
2023-03-21T08:03:59.232Z,49.88
2023-03-21T08:05:31.644Z,52.75
2023-03-21T08:07:07.723Z,55.38
2023-03-21T08:08:31.772Z,47.88
2023-03-21T08:09:58.771Z,51.35
2023-03-21T08:11:27.082Z,49.10
2023-03-21T08:12:55.757Z,52.97
2023-03-21T08:14:23.746Z,48.97
2023-03-21T08:15:50.213Z,49.30
2023-03-21T08:17:12.390Z,47.85
2023-03-21T08:18:38.081Z,46.33
2023-03-21T08:20:02.712Z,42.17
2023-03-21T08:21:27.701Z,44.10
2023-03-21T08:22:52.285Z,47.95
2023-03-21T08:24:14.805Z,39.35
2023-03-21T08:25:37.630Z,47.72
2023-03-21T08:27:00.413Z,46.40
2023-03-21T08:28:30.144Z,51.20
2023-03-21T08:30:01.975Z,44.70
2023-03-21T08:31:27.012Z,40.20
2023-03-21T08:33:00.873Z,43.97
2023-03-21T08:34:24.680Z,40.30
2023-03-21T08:35:57.050Z,40.72
2023-03-21T08:37:20.759Z,38.55
2023-03-21T08:38:54.240Z,40.95
2023-03-21T08:40:26.920Z,42.35
2023-03-21T08:41:53.033Z,41.42
2023-03-21T08:43:18.669Z,48.80
2023-03-21T08:44:41.890Z,47.85
2023-03-21T08:46:06.024Z,39.10
2023-03-21T08:47:28.820Z,40.13
2023-03-21T08:48:51.601Z,40.92
2023-03-21T08:50:16.396Z,44.13
2023-03-21T08:51:43.436Z,43.45
2023-03-21T08:53:05.591Z,46.33
2023-03-21T08:54:31.541Z,42.78
2023-03-21T08:55:56.020Z,48.25
2023-03-21T08:57:22.631Z,49.65
2023-03-21T08:58:47.962Z,43.90
2023-03-21T09:00:14.795Z,45.10
2023-03-21T09:01:39.571Z,42.90
2023-03-21T09:03:02.356Z,42.88
2023-03-21T09:04:26.239Z,46.75
2023-03-21T09:05:48.769Z,46.35
2023-03-21T09:07:11.382Z,46.85
2023-03-21T09:08:34.199Z,47.67
2023-03-21T09:10:19.082Z,48.97
2023-03-21T09:11:42.040Z,41.53
2023-03-21T09:13:07.505Z,46.97
2023-03-21T09:14:30.297Z,39.45
2023-03-21T09:15:53.230Z,42.88
2023-03-21T09:17:21.122Z,47.13
2023-03-21T09:18:47.500Z,45.30
2023-03-21T09:20:11.898Z,45.22
2023-03-21T09:21:34.361Z,44.95
2023-03-21T09:22:57.067Z,43.05
2023-03-21T09:24:19.543Z,46.28
2023-03-21T09:25:46.255Z,38.92
2023-03-21T09:27:08.805Z,43.50
2023-03-21T09:28:31.697Z,37.60
2023-03-21T09:29:54.339Z,42.45
2023-03-21T09:31:23.081Z,45.95
2023-03-21T09:32:50.933Z,42.50
2023-03-21T09:34:17.833Z,39.00
2023-03-21T09:35:41.247Z,40.58
2023-03-21T09:37:11.354Z,40.72
2023-03-21T09:38:36.982Z,38.03
2023-03-21T09:39:59.736Z,41.90
2023-03-21T09:41:51.849Z,42.25
2023-03-21T09:43:27.801Z,41.53
2023-03-21T09:45:06.707Z,39.28
2023-03-21T09:46:38.609Z,40.25
2023-03-21T09:48:04.058Z,38.83
2023-03-21T09:50:01.727Z,39.80
2023-03-21T09:51:37.210Z,39.28
2023-03-21T09:53:06.972Z,36.95
2023-03-21T09:54:48.096Z,35.75
2023-03-21T09:56:14.350Z,42.65
2023-03-21T09:57:43.546Z,32.63
2023-03-21T09:59:10.723Z,37.65
2023-03-21T10:00:38.745Z,41.63
2023-03-21T10:02:03.483Z,43.92
2023-03-21T10:03:27.668Z,40.10
2023-03-21T10:04:50.653Z,37.92
2023-03-21T10:06:16.610Z,40.72
2023-03-21T10:07:49.154Z,39.50
2023-03-21T10:09:17.374Z,39.30
2023-03-21T10:10:48.999Z,37.45
2023-03-21T10:12:21.239Z,41.42
2023-03-21T10:13:59.088Z,38.75
2023-03-21T10:15:23.844Z,39.20
2023-03-21T10:16:50.648Z,39.22
2023-03-21T10:18:22.518Z,36.65
2023-03-21T10:19:47.049Z,35.60
2023-03-21T10:21:37.225Z,40.20
2023-03-21T10:23:03.016Z,39.63
2023-03-21T10:24:39.011Z,37.28
2023-03-21T10:26:06.217Z,40.45
2023-03-21T10:27:32.901Z,37.63
2023-03-21T10:29:03.175Z,36.28
2023-03-21T10:30:43.523Z,38.17
2023-03-21T10:32:08.268Z,39.13
2023-03-21T10:33:37.683Z,35.92
2023-03-21T10:35:04.337Z,35.42
2023-03-21T10:36:32.093Z,40.10
2023-03-21T10:37:54.972Z,38.67
2023-03-21T10:39:37.950Z,41.92
2023-03-21T10:41:03.518Z,39.60
2023-03-21T10:42:33.540Z,42.58
2023-03-21T10:44:17.721Z,41.22
2023-03-21T10:45:41.113Z,43.28
2023-03-21T10:47:14.386Z,41.40
2023-03-21T10:48:39.175Z,47.95
2023-03-21T10:50:16.529Z,38.88
2023-03-21T10:51:43.155Z,42.40
2023-03-21T10:53:22.877Z,39.20
2023-03-21T10:54:48.619Z,38.53
2023-03-21T10:56:14.954Z,40.10
2023-03-21T10:57:38.552Z,37.83
2023-03-21T10:59:02.880Z,38.35
2023-03-21T11:00:33.888Z,42.47
2023-03-21T11:02:02.726Z,38.42
2023-03-21T11:03:29.435Z,42.83
2023-03-21T11:04:53.330Z,41.40
2023-03-21T11:06:19.190Z,40.22
2023-03-21T11:07:41.049Z,40.58
2023-03-21T11:10:34.449Z,39.88
2023-03-21T11:12:03.554Z,43.92
2023-03-21T11:13:27.726Z,43.80
2023-03-21T11:14:51.545Z,46.30
2023-03-21T11:16:26.317Z,45.90
2023-03-21T11:17:49.128Z,46.28
2023-03-21T11:19:16.672Z,43.22
2023-03-21T11:20:45.949Z,40.72
2023-03-21T11:22:09.689Z,42.05
2023-03-21T11:23:33.240Z,45.08
2023-03-21T11:25:00.903Z,38.03
2023-03-21T11:26:27.568Z,48.90
2023-03-21T11:27:52.011Z,42.25
2023-03-21T11:29:27.624Z,46.63
2023-03-21T11:30:59.112Z,43.45
2023-03-21T11:35:26.429Z,39.70
2023-03-21T11:36:52.490Z,44.80
2023-03-21T11:38:29.194Z,41.13
2023-03-21T11:39:56.806Z,43.13
2023-03-21T11:41:24.956Z,49.85
2023-03-21T11:42:49.951Z,46.00
2023-03-21T11:44:28.536Z,40.45
2023-03-21T11:45:58.393Z,42.38
2023-03-21T11:47:24.214Z,44.22
2023-03-21T11:49:00.068Z,44.97
2023-03-21T11:50:33.992Z,52.25
2023-03-21T11:52:18.728Z,50.55
2023-03-21T11:53:50.556Z,44.45
2023-03-21T11:55:26.331Z,44.85
2023-03-21T11:56:52.328Z,50.95
2023-03-21T11:58:34.216Z,48.47
2023-03-21T12:00:10.760Z,46.70
2023-03-21T12:01:39.138Z,47.95
2023-03-21T12:03:47.273Z,45.33
2023-03-21T12:05:29.201Z,48.63
2023-03-21T12:07:01.886Z,43.38
2023-03-21T12:08:38.414Z,46.90
2023-03-21T12:10:19.692Z,45.80
2023-03-21T12:11:52.570Z,46.05
2023-03-21T12:13:34.492Z,45.83
2023-03-21T12:15:04.806Z,47.60
2023-03-21T12:16:36.929Z,54.25
2023-03-21T12:18:08.358Z,51.08
2023-03-21T12:19:53.601Z,49.22
2023-03-21T12:21:21.717Z,48.65
2023-03-21T12:22:58.143Z,52.20
2023-03-21T12:24:26.406Z,51.63
2023-03-21T12:25:56.827Z,45.58
2023-03-21T12:27:31.907Z,45.85
2023-03-21T12:29:14.605Z,50.10
2023-03-21T12:30:49.833Z,49.53
2023-03-21T12:32:25.920Z,49.45
2023-03-21T12:34:00.250Z,48.75
2023-03-21T12:35:36.645Z,47.80
2023-03-21T12:37:15.501Z,49.70
2023-03-21T12:38:45.449Z,41.92
2023-03-21T12:40:21.675Z,44.53
2023-03-21T12:42:00.608Z,43.50
2023-03-21T12:43:32.756Z,46.00
2023-03-21T12:45:06.291Z,49.88
2023-03-21T12:46:41.157Z,48.10
2023-03-21T12:48:19.729Z,45.47
2023-03-21T12:49:49.521Z,43.53
2023-03-21T12:51:16.919Z,44.80
2023-03-21T12:52:43.992Z,44.67
2023-03-21T12:54:23.004Z,45.63
2023-03-21T12:55:46.591Z,41.08
2023-03-21T12:57:18.101Z,44.08
2023-03-21T12:58:48.101Z,44.15
2023-03-21T13:00:17.813Z,41.25
2023-03-21T13:01:41.965Z,40.38
2023-03-21T13:03:07.085Z,41.63
2023-03-21T13:04:51.623Z,42.97
2023-03-21T13:06:15.651Z,40.50
2023-03-21T13:07:43.215Z,45.58
2023-03-21T13:09:25.781Z,41.97
2023-03-21T13:12:47.460Z,41.25
2023-03-21T13:14:18.864Z,46.58
2023-03-21T13:16:23.537Z,42.65
2023-03-21T13:17:47.544Z,44.38
2023-03-21T13:19:26.085Z,42.30
2023-03-21T13:20:53.285Z,49.50
2023-03-21T13:22:26.759Z,45.00
2023-03-21T13:24:28.295Z,46.03
2023-03-21T13:26:22.633Z,43.80
2023-03-21T13:30:40.166Z,48.35
2023-03-21T13:32:12.758Z,47.28
2023-03-21T13:37:22.928Z,50.15
2023-03-21T13:38:51.963Z,47.17
2023-03-21T13:40:26.541Z,44.95
2023-03-21T13:41:50.915Z,44.15
2023-03-21T13:43:43.783Z,45.95
2023-03-21T13:45:12.149Z,44.80
2023-03-21T13:46:54.021Z,47.30
2023-03-21T13:48:30.157Z,49.28
2023-03-21T13:50:16.726Z,44.10
2023-03-21T13:51:53.592Z,44.05
2023-03-21T13:53:24.755Z,49.47
2023-03-21T13:54:53.500Z,48.80
2023-03-21T13:56:28.377Z,41.40
2023-03-21T13:57:50.471Z,54.42
2023-03-21T13:59:14.022Z,41.97
2023-03-21T14:00:41.384Z,51.10
2023-03-21T14:02:23.473Z,49.20
2023-03-21T14:03:47.234Z,51.58
2023-03-21T14:05:22.093Z,50.55
2023-03-21T14:06:51.547Z,45.70
2023-03-21T14:08:31.223Z,46.53
2023-03-21T14:10:01.365Z,51.20
2023-03-21T14:11:25.305Z,37.17
2023-03-21T14:12:47.934Z,40.35
2023-03-21T14:14:11.053Z,39.97
2023-03-21T14:15:53.143Z,39.83
2023-03-21T14:17:24.800Z,39.60
2023-03-21T14:18:55.093Z,39.20
2023-03-21T14:20:21.659Z,34.28
2023-03-21T14:21:51.671Z,38.97
2023-03-21T14:23:16.458Z,42.55
2023-03-21T14:24:38.792Z,38.05
2023-03-21T14:26:01.525Z,39.92
2023-03-21T14:27:29.163Z,33.28
2023-03-21T14:28:53.441Z,35.95
2023-03-21T14:30:23.186Z,34.10
2023-03-21T14:31:48.467Z,35.83
2023-03-21T14:33:18.549Z,32.85
2023-03-21T14:34:43.085Z,36.35
2023-03-21T14:36:14.966Z,34.88
2023-03-21T14:37:42.495Z,38.30
2023-03-21T14:39:07.477Z,34.08
2023-03-21T14:40:31.155Z,36.10
2023-03-21T14:41:55.159Z,42.67
2023-03-21T14:43:23.338Z,40.03
2023-03-21T14:44:55.942Z,38.65
2023-03-21T14:46:26.161Z,35.75
2023-03-21T14:48:01.657Z,35.75
2023-03-21T14:49:30.851Z,34.88
2023-03-21T14:50:56.040Z,35.05
2023-03-21T14:52:25.642Z,37.00
2023-03-21T14:53:46.946Z,34.45
2023-03-21T14:55:16.980Z,41.30
2023-03-21T14:56:42.772Z,40.05
2023-03-21T14:58:10.120Z,38.42
2023-03-21T14:59:37.186Z,43.30
2023-03-21T15:01:04.222Z,42.20
2023-03-21T15:02:30.364Z,42.95
2023-03-21T15:03:53.401Z,39.50
2023-03-21T15:05:21.848Z,38.78
2023-03-21T15:07:02.488Z,38.80
2023-03-21T15:08:30.092Z,41.03
2023-03-21T15:09:55.998Z,43.42
2023-03-21T15:11:21.921Z,45.22
2023-03-21T15:13:03.337Z,43.08
2023-03-21T15:14:34.369Z,39.65
2023-03-21T15:16:06.050Z,46.92
2023-03-21T15:17:40.060Z,43.40
2023-03-21T15:19:05.491Z,47.88
2023-03-21T15:20:36.730Z,42.10
2023-03-21T15:22:15.944Z,41.80
2023-03-21T15:23:41.678Z,47.15
2023-03-21T15:25:05.994Z,42.80
2023-03-21T15:26:28.986Z,42.92
2023-03-21T15:27:57.266Z,40.45
2023-03-21T15:29:21.671Z,41.58
2023-03-21T15:30:53.343Z,44.55
2023-03-21T15:32:22.751Z,47.90
2023-03-21T15:33:51.363Z,44.17
2023-03-21T15:35:22.118Z,42.83
2023-03-21T15:36:50.996Z,42.58
2023-03-21T15:38:40.197Z,46.63
2023-03-21T15:40:17.078Z,44.72
2023-03-21T15:41:42.817Z,43.38
2023-03-21T15:43:15.410Z,45.65
2023-03-21T15:44:40.851Z,42.83
2023-03-21T15:46:20.821Z,42.13
2023-03-21T15:48:17.260Z,44.97
2023-03-21T15:50:08.834Z,41.95
2023-03-21T15:51:46.863Z,46.72
2023-03-21T15:53:25.285Z,43.88
2023-03-21T15:55:11.432Z,39.05
2023-03-21T15:56:38.250Z,45.35
2023-03-21T15:58:07.508Z,46.35
2023-03-21T15:59:37.901Z,47.75
2023-03-21T16:01:06.534Z,44.55
2023-03-21T16:02:32.406Z,40.20
2023-03-21T16:04:03.502Z,46.25
2023-03-21T16:05:28.815Z,44.90
2023-03-21T16:06:58.729Z,42.40
2023-03-21T16:08:24.082Z,46.78
2023-03-21T16:09:48.289Z,46.75
2023-03-21T16:11:19.530Z,47.75
2023-03-21T16:12:43.272Z,53.45
2023-03-21T16:14:07.107Z,44.70
2023-03-21T16:15:34.930Z,46.70
2023-03-21T16:16:59.317Z,51.08
2023-03-21T16:18:20.635Z,52.75
2023-03-21T16:19:45.651Z,47.10
2023-03-21T16:21:17.804Z,50.60
2023-03-21T16:22:44.853Z,49.42
2023-03-21T16:24:11.875Z,49.05
2023-03-21T16:25:35.899Z,47.17
2023-03-21T16:27:02.981Z,46.92
2023-03-21T16:28:32.024Z,49.67
2023-03-21T16:29:54.620Z,49.72
2023-03-21T16:31:24.487Z,49.53
2023-03-21T16:33:16.621Z,54.05
2023-03-21T16:34:54.347Z,48.08
2023-03-21T16:36:22.943Z,50.50
2023-03-21T16:37:46.028Z,58.47
2023-03-21T16:39:18.275Z,49.10
2023-03-21T16:42:03.775Z,52.47
2023-03-21T16:43:27.254Z,50.33
2023-03-21T16:44:51.974Z,50.53
2023-03-21T16:46:30.196Z,47.13
2023-03-21T16:47:58.060Z,48.65
2023-03-21T16:49:26.017Z,52.42
2023-03-21T16:50:53.345Z,52.85
2023-03-21T16:52:26.352Z,50.42
2023-03-21T16:53:56.254Z,53.17
2023-03-21T16:55:27.331Z,56.97
2023-03-21T16:56:54.053Z,47.92
2023-03-21T16:58:17.534Z,49.95
2023-03-21T16:59:41.099Z,50.58
2023-03-21T17:01:03.464Z,52.40
2023-03-21T17:02:30.168Z,50.50
2023-03-21T17:04:08.348Z,52.80
2023-03-21T17:05:32.156Z,56.13
2023-03-21T17:06:56.063Z,55.17
2023-03-21T17:11:02.690Z,52.20
2023-03-21T17:12:48.739Z,61.70
2023-03-21T17:14:18.136Z,57.15
2023-03-21T17:15:41.801Z,58.47
2023-03-21T17:17:04.928Z,58.70
2023-03-21T17:18:31.022Z,53.03
2023-03-21T17:19:53.410Z,62.40
2023-03-21T17:21:19.828Z,62.90
2023-03-21T17:22:46.344Z,54.67
2023-03-21T17:24:09.428Z,58.67
2023-03-21T17:25:35.899Z,51.53
2023-03-21T17:26:59.295Z,61.85
2023-03-21T17:28:20.377Z,60.65
2023-03-21T17:29:45.607Z,59.17
2023-03-21T17:31:17.952Z,60.17
2023-03-21T17:32:41.161Z,60.58
2023-03-21T17:34:04.630Z,58.75
2023-03-21T17:35:29.041Z,62.80
2023-03-21T17:36:54.915Z,58.00
2023-03-21T17:38:22.381Z,63.42
2023-03-21T17:39:51.065Z,59.15
2023-03-21T17:41:18.676Z,57.72
2023-03-21T17:42:49.405Z,58.58
2023-03-21T17:44:17.934Z,54.20
2023-03-21T17:45:40.215Z,58.40
2023-03-21T17:47:06.064Z,60.05
2023-03-21T17:48:30.597Z,57.97
2023-03-21T17:49:54.706Z,56.03
2023-03-21T17:51:23.223Z,65.00
2023-03-21T17:52:49.628Z,59.22
2023-03-21T17:54:15.022Z,67.68
2023-03-21T17:55:44.382Z,64.20
2023-03-21T17:57:19.514Z,61.95
2023-03-21T17:58:45.251Z,66.43
2023-03-21T18:00:13.181Z,69.97
2023-03-21T18:01:36.633Z,72.47
2023-03-21T18:03:04.428Z,69.88
2023-03-21T18:04:30.335Z,69.35
2023-03-21T18:05:52.853Z,70.78
2023-03-21T18:07:28.634Z,71.28
2023-03-21T18:09:00.383Z,75.88
2023-03-21T18:10:26.743Z,73.38
2023-03-21T18:11:50.162Z,79.40
2023-03-21T18:13:25.554Z,77.28
2023-03-21T18:14:50.203Z,82.32
2023-03-21T18:16:45.426Z,80.05
2023-03-21T18:18:13.062Z,78.22
2023-03-21T18:19:38.731Z,79.97
2023-03-21T18:21:10.963Z,81.13
2023-03-21T18:22:33.740Z,81.50
2023-03-21T18:23:57.820Z,75.55
2023-03-21T18:25:20.611Z,79.85
2023-03-21T18:26:46.205Z,89.88
2023-03-21T18:28:21.402Z,82.13
2023-03-21T18:30:28.898Z,83.65
2023-03-21T18:31:37.221Z,83.07
2023-03-21T18:33:00.162Z,80.88
2023-03-21T18:34:30.179Z,80.47
2023-03-21T18:35:58.793Z,80.38
2023-03-21T18:37:22.890Z,78.22
2023-03-21T18:38:51.378Z,76.38
2023-03-21T18:40:22.921Z,75.70
2023-03-21T18:42:04.144Z,79.82
2023-03-21T18:45:27.201Z,83.82
2023-03-21T18:47:13.944Z,76.05
2023-03-21T18:48:40.344Z,76.75
2023-03-21T18:50:14.120Z,80.70
2023-03-21T18:51:50.982Z,79.75
2023-03-21T18:53:24.344Z,77.82
2023-03-21T18:54:49.463Z,75.88
2023-03-21T18:57:13.124Z,75.40
2023-03-21T18:58:19.436Z,74.72
2023-03-21T18:59:52.798Z,77.63
2023-03-21T19:01:18.465Z,80.40
2023-03-21T19:02:46.736Z,77.70
2023-03-21T19:04:25.556Z,79.95
2023-03-21T19:05:54.566Z,81.43
2023-03-21T19:07:22.204Z,77.20
2023-03-21T19:08:50.215Z,82.72
2023-03-21T19:10:18.594Z,85.75
2023-03-21T19:11:51.749Z,80.88
2023-03-21T19:13:30.658Z,77.90
2023-03-21T19:15:37.964Z,81.85
2023-03-21T19:21:15.919Z,84.65
2023-03-21T19:22:38.336Z,84.90
2023-03-21T19:24:26.647Z,87.05
2023-03-21T19:25:50.946Z,87.85
2023-03-21T19:27:14.059Z,84.68
2023-03-21T19:28:38.279Z,85.97
2023-03-21T19:30:15.770Z,90.82
2023-03-21T19:31:41.650Z,85.22
2023-03-21T19:35:41.083Z,93.10
2023-03-21T19:38:47.503Z,84.20
2023-03-21T19:38:59.930Z,90.40
2023-03-21T19:40:59.084Z,84.28
2023-03-21T19:42:23.516Z,85.38